createdAt,value
2019-03-29T00:00:33.895Z,0.70
2019-03-29T00:03:02.141Z,1.20
2019-03-29T00:05:30.444Z,0.80
2019-03-29T00:07:58.724Z,1.03
2019-03-29T00:10:27.018Z,0.90
2019-03-29T00:12:55.358Z,1.10
2019-03-29T00:15:23.636Z,1.00
2019-03-29T00:17:51.976Z,0.90
2019-03-29T00:20:20.455Z,0.90
2019-03-29T00:22:48.696Z,0.73
2019-03-29T00:25:16.914Z,1.00
2019-03-29T00:27:45.305Z,1.20
2019-03-29T00:30:13.722Z,1.10
2019-03-29T00:32:42.003Z,0.90
2019-03-29T00:35:31.064Z,0.97
2019-03-29T05:50:08.764Z,3.10
2019-03-29T05:52:37.139Z,2.90
2019-03-29T05:55:05.847Z,2.83
2019-03-29T05:57:34.146Z,2.50
2019-03-29T06:00:02.459Z,3.00
2019-03-29T06:02:30.752Z,2.67
2019-03-29T06:04:59.120Z,3.23
2019-03-29T06:07:27.440Z,2.67
2019-03-29T06:09:55.794Z,2.37
2019-03-29T06:12:24.251Z,2.33
2019-03-29T06:14:52.542Z,2.90
2019-03-29T06:17:20.895Z,2.83
2019-03-29T06:19:49.211Z,2.83
2019-03-29T06:22:17.584Z,2.40
2019-03-29T06:24:45.930Z,2.73
2019-03-29T06:27:14.160Z,2.97
2019-03-29T06:29:42.715Z,2.70
2019-03-29T06:32:11.079Z,2.37
2019-03-29T06:34:39.371Z,2.73
2019-03-29T06:37:08.300Z,2.87
2019-03-29T06:39:37.656Z,2.63
2019-03-29T06:42:05.883Z,2.73
2019-03-29T06:44:34.115Z,2.60
2019-03-29T06:47:02.416Z,2.43
2019-03-29T06:49:30.841Z,2.50
2019-03-29T06:51:59.199Z,2.77
2019-03-29T06:54:27.511Z,2.30
2019-03-29T06:56:55.889Z,2.60
2019-03-29T06:59:25.333Z,2.27
2019-03-29T07:01:53.666Z,2.50
2019-03-29T07:04:21.951Z,2.60
2019-03-29T07:06:50.174Z,2.83
2019-03-29T07:09:18.452Z,2.70
2019-03-29T07:11:46.627Z,2.60
2019-03-29T07:14:14.831Z,3.20
2019-03-29T07:16:43.111Z,2.87
2019-03-29T07:19:11.357Z,3.00
2019-03-29T07:21:39.656Z,3.00
2019-03-29T07:24:07.961Z,2.30
2019-03-29T07:26:36.204Z,2.40
2019-03-29T07:29:04.499Z,2.70
2019-03-29T07:31:32.769Z,3.17
2019-03-29T07:34:00.984Z,2.90
2019-03-29T07:36:29.247Z,2.33
2019-03-29T07:38:57.480Z,3.37
2019-03-29T07:41:32.100Z,2.93
2019-03-29T07:43:55.635Z,2.80
2019-03-29T07:46:23.882Z,3.03
2019-03-29T07:48:52.196Z,2.40
2019-03-29T07:51:20.508Z,2.20
2019-03-29T07:53:48.821Z,2.97
2019-03-29T07:56:17.096Z,2.70
2019-03-29T07:58:45.764Z,2.80
2019-03-29T08:01:13.999Z,2.93
2019-03-29T08:03:42.226Z,2.70
2019-03-29T08:06:11.304Z,2.60
2019-03-29T08:08:40.317Z,2.40
2019-03-29T08:11:08.597Z,2.90
2019-03-29T08:13:36.892Z,2.70
2019-03-29T08:16:06.650Z,2.77
2019-03-29T08:18:35.059Z,2.70
2019-03-29T08:21:03.335Z,3.33
2019-03-29T08:23:31.623Z,3.03
2019-03-29T08:25:59.840Z,2.83
2019-03-29T08:28:28.139Z,2.70
2019-03-29T08:30:56.450Z,2.70
2019-03-29T08:33:24.747Z,3.50
2019-03-29T08:35:53.096Z,2.80
2019-03-29T08:38:21.497Z,2.70
2019-03-29T08:40:49.951Z,2.50
2019-03-29T08:43:20.516Z,2.40
2019-03-29T08:45:48.851Z,2.53
2019-03-29T08:48:17.057Z,3.03
2019-03-29T08:50:45.324Z,2.63
2019-03-29T08:53:13.603Z,3.00
2019-03-29T08:55:46.109Z,2.50
2019-03-29T08:58:12.059Z,2.87
2019-03-29T09:00:40.359Z,2.80
2019-03-29T09:03:08.665Z,2.93
2019-03-29T09:05:39.200Z,2.30
2019-03-29T09:08:06.912Z,2.43
2019-03-29T09:10:35.183Z,2.57
2019-03-29T09:13:04.608Z,2.27
2019-03-29T09:15:33.251Z,2.93
2019-03-29T09:18:01.596Z,2.20
2019-03-29T09:20:29.912Z,3.07
2019-03-29T09:22:58.119Z,2.37
2019-03-29T09:25:26.463Z,2.50
2019-03-29T09:27:54.758Z,2.43
2019-03-29T09:30:24.049Z,2.80
2019-03-29T09:32:52.219Z,2.60
2019-03-29T09:35:20.627Z,2.30
2019-03-29T09:37:48.867Z,2.83
2019-03-29T09:40:17.063Z,2.63
2019-03-29T09:42:52.198Z,2.83
2019-03-29T09:45:18.404Z,2.77
2019-03-29T09:47:46.808Z,2.43
2019-03-29T09:50:15.191Z,2.67
2019-03-29T09:52:43.512Z,2.67
2019-03-29T09:55:11.840Z,2.80
2019-03-29T09:57:40.165Z,2.73
2019-03-29T10:00:19.046Z,2.40
2019-03-29T10:02:39.678Z,2.37
2019-03-29T10:05:07.908Z,2.60
2019-03-29T10:07:36.185Z,3.10
2019-03-29T10:10:04.783Z,2.60
2019-03-29T10:12:43.166Z,2.70
2019-03-29T10:15:02.937Z,2.80
2019-03-29T10:17:31.258Z,2.60
2019-03-29T10:19:59.563Z,3.40
2019-03-29T10:22:27.864Z,2.90
2019-03-29T10:24:56.090Z,2.83
2019-03-29T10:27:24.371Z,3.03
2019-03-29T10:29:52.626Z,2.70
2019-03-29T10:32:20.908Z,2.90
2019-03-29T10:34:49.090Z,3.23
2019-03-29T10:37:17.346Z,3.17
2019-03-29T10:39:45.636Z,3.27
2019-03-29T10:42:13.995Z,3.43
2019-03-29T10:44:42.304Z,3.67
2019-03-29T10:47:10.603Z,4.13
2019-03-29T10:49:38.885Z,4.33
2019-03-29T10:52:07.099Z,3.90
2019-03-29T10:54:35.316Z,3.70
2019-03-29T10:57:03.583Z,3.40
2019-03-29T10:59:31.797Z,4.13
2019-03-29T11:02:00.106Z,3.50
2019-03-29T11:04:31.704Z,3.50
2019-03-29T11:06:58.282Z,4.20
2019-03-29T11:09:26.525Z,4.30
2019-03-29T11:11:54.831Z,3.83
2019-03-29T11:14:23.157Z,4.50
2019-03-29T11:16:53.623Z,3.43
2019-03-29T11:19:21.865Z,4.10
2019-03-29T11:21:50.090Z,3.50
2019-03-29T11:24:18.382Z,4.17
2019-03-29T11:26:46.675Z,3.97
2019-03-29T11:29:14.997Z,4.00
2019-03-29T11:31:43.256Z,3.83
2019-03-29T11:34:11.449Z,3.70
2019-03-29T11:36:39.662Z,4.03
2019-03-29T11:39:08.428Z,3.80
2019-03-29T11:41:37.028Z,3.70
2019-03-29T11:44:05.244Z,4.23
2019-03-29T11:46:33.460Z,3.90
2019-03-29T11:49:01.862Z,3.93
2019-03-29T11:51:30.126Z,3.60
2019-03-29T11:53:58.489Z,3.60
2019-03-29T11:56:26.688Z,4.10
2019-03-29T11:58:54.960Z,4.20
2019-03-29T12:01:23.219Z,3.80
2019-03-29T12:03:51.534Z,3.70
2019-03-29T12:06:20.150Z,3.67
2019-03-29T12:08:48.431Z,3.27
2019-03-29T12:11:16.667Z,3.93
2019-03-29T12:13:44.898Z,3.60
2019-03-29T12:16:13.153Z,3.67
2019-03-29T12:18:41.379Z,3.43
2019-03-29T12:21:09.662Z,3.93
2019-03-29T12:23:37.831Z,3.57
2019-03-29T12:26:06.059Z,3.50
2019-03-29T12:28:34.434Z,3.80
2019-03-29T12:31:02.743Z,3.37
2019-03-29T12:33:31.019Z,3.67
2019-03-29T12:35:59.292Z,3.63
2019-03-29T12:38:27.485Z,3.90
2019-03-29T12:40:55.822Z,4.13
2019-03-29T12:43:24.247Z,3.73
2019-03-29T12:45:52.452Z,3.37
2019-03-29T12:48:20.654Z,3.27
2019-03-29T12:50:49.033Z,4.00
2019-03-29T12:53:17.336Z,3.37
2019-03-29T12:55:45.604Z,3.77
2019-03-29T12:58:13.906Z,3.70
2019-03-29T13:00:42.272Z,3.20
2019-03-29T13:03:10.502Z,3.57
2019-03-29T13:05:38.823Z,3.80
2019-03-29T13:08:07.099Z,3.47
2019-03-29T13:10:35.405Z,3.73
2019-03-29T13:13:04.089Z,3.67
2019-03-29T13:15:32.297Z,3.23
2019-03-29T13:18:00.599Z,3.40
2019-03-29T13:20:28.959Z,3.10
2019-03-29T13:22:57.217Z,3.13
2019-03-29T13:25:25.536Z,3.33
2019-03-29T13:27:57.576Z,3.53
2019-03-29T13:30:23.982Z,3.87
2019-03-29T13:32:52.223Z,3.60
2019-03-29T13:35:20.426Z,3.53
2019-03-29T13:37:48.717Z,3.37
2019-03-29T13:40:16.999Z,3.73
2019-03-29T13:42:45.235Z,3.20
2019-03-29T13:45:13.523Z,3.57
2019-03-29T13:47:41.766Z,3.37
2019-03-29T13:50:10.332Z,3.33
2019-03-29T13:52:38.529Z,3.27
2019-03-29T13:55:07.123Z,3.43
2019-03-29T13:57:35.392Z,3.77
2019-03-29T14:00:04.157Z,3.13
2019-03-29T14:02:32.530Z,3.87
2019-03-29T14:05:00.751Z,3.30
2019-03-29T14:07:29.018Z,2.90
2019-03-29T14:09:57.334Z,3.27
2019-03-29T14:12:25.649Z,3.70
2019-03-29T14:14:53.896Z,3.50
2019-03-29T14:17:22.107Z,3.03
2019-03-29T14:19:50.356Z,3.00
2019-03-29T14:22:18.670Z,2.63
2019-03-29T14:24:46.887Z,3.10
2019-03-29T14:27:15.984Z,3.47
2019-03-29T14:29:44.238Z,2.90
2019-03-29T14:32:12.461Z,3.57
2019-03-29T14:34:40.946Z,3.53
2019-03-29T14:37:09.211Z,3.30
2019-03-29T14:39:37.561Z,3.43
2019-03-29T14:42:05.829Z,3.50
2019-03-29T14:44:34.012Z,3.10
2019-03-29T14:47:02.204Z,3.03
2019-03-29T14:49:30.488Z,3.20
2019-03-29T14:51:58.883Z,3.10
2019-03-29T14:54:27.251Z,2.83
2019-03-29T14:56:55.548Z,3.10
2019-03-29T14:59:23.865Z,2.60
2019-03-29T15:01:52.603Z,3.40
2019-03-29T15:04:20.812Z,2.90
2019-03-29T15:06:49.163Z,2.77
2019-03-29T15:09:17.513Z,3.43
2019-03-29T15:11:45.928Z,3.03
2019-03-29T15:14:14.253Z,3.00
2019-03-29T15:16:42.551Z,2.97
2019-03-29T15:19:10.769Z,2.87
2019-03-29T15:21:39.043Z,3.30
2019-03-29T15:24:07.767Z,3.43
2019-03-29T15:26:35.947Z,3.10
2019-03-29T15:29:04.771Z,3.43
2019-03-29T15:31:33.085Z,2.97
2019-03-29T15:34:01.366Z,2.70
2019-03-29T15:36:29.567Z,3.03
2019-03-29T15:38:57.812Z,2.90
2019-03-29T15:41:26.232Z,2.93
2019-03-29T15:43:54.483Z,3.40
2019-03-29T15:46:22.775Z,2.83
2019-03-29T15:48:51.049Z,3.40
2019-03-29T15:51:19.322Z,3.60
2019-03-29T15:53:47.619Z,2.73
2019-03-29T15:56:15.963Z,2.77
2019-03-29T15:58:44.199Z,3.37
2019-03-29T16:01:12.549Z,3.30
2019-03-29T16:03:40.897Z,2.90
2019-03-29T16:06:09.159Z,2.83
2019-03-29T16:08:37.363Z,3.10
2019-03-29T16:11:08.942Z,3.10
2019-03-29T16:13:35.532Z,3.60
2019-03-29T16:16:03.793Z,3.00
2019-03-29T16:18:32.103Z,3.40
2019-03-29T16:21:00.388Z,3.00
2019-03-29T16:23:28.731Z,3.20
2019-03-29T16:25:57.006Z,3.23
2019-03-29T16:28:25.295Z,3.27
2019-03-29T16:30:53.650Z,3.23
2019-03-29T16:33:21.891Z,2.93
2019-03-29T16:35:50.218Z,3.20
2019-03-29T16:38:18.486Z,3.03
2019-03-29T16:40:46.747Z,3.20
2019-03-29T16:43:15.036Z,3.50
2019-03-29T16:45:48.087Z,3.00
2019-03-29T16:48:13.244Z,3.03
2019-03-29T16:50:41.551Z,3.23
2019-03-29T16:53:10.003Z,3.40
2019-03-29T16:55:38.285Z,3.50
2019-03-29T16:58:06.623Z,2.73
2019-03-29T17:00:34.853Z,3.40
2019-03-29T17:03:03.102Z,3.13
2019-03-29T17:05:31.344Z,3.57
2019-03-29T17:07:59.659Z,3.40
2019-03-29T17:10:28.042Z,3.23
2019-03-29T17:12:56.263Z,2.97
2019-03-29T17:15:24.784Z,2.90
2019-03-29T17:17:53.226Z,3.03
2019-03-29T17:20:21.540Z,3.50
2019-03-29T17:22:49.775Z,3.40
2019-03-29T17:25:18.028Z,3.13
2019-03-29T17:27:46.323Z,2.87
2019-03-29T17:30:16.993Z,3.20
2019-03-29T17:32:45.329Z,3.60
2019-03-29T17:35:13.757Z,3.63
2019-03-29T17:37:42.153Z,2.70
2019-03-29T17:40:10.411Z,3.23
2019-03-29T17:42:38.735Z,2.40
2019-03-29T17:45:07.299Z,3.43
2019-03-29T17:47:35.573Z,5.00
2019-03-29T17:50:03.852Z,3.10
2019-03-29T17:52:32.062Z,3.63
2019-03-29T17:55:00.435Z,3.00
2019-03-29T17:57:28.762Z,3.53
2019-03-29T17:59:57.956Z,3.37
2019-03-29T18:02:26.205Z,3.23
2019-03-29T18:04:54.574Z,3.17
2019-03-29T18:07:22.787Z,3.30
2019-03-29T18:09:51.196Z,3.90
2019-03-29T18:12:19.421Z,3.90
2019-03-29T18:14:50.966Z,3.30
2019-03-29T18:17:19.475Z,3.40
2019-03-29T18:19:48.596Z,3.53
2019-03-29T18:22:16.904Z,3.60
2019-03-29T18:24:45.200Z,3.50
2019-03-29T18:27:13.467Z,3.77
2019-03-29T18:29:41.700Z,4.10
2019-03-29T18:32:09.945Z,4.03
2019-03-29T18:34:41.643Z,3.40
2019-03-29T18:37:08.378Z,3.87
2019-03-29T18:39:37.523Z,3.67
2019-03-29T18:42:05.852Z,3.80
2019-03-29T18:44:34.137Z,3.87
2019-03-29T18:47:02.490Z,3.80
2019-03-29T18:49:32.376Z,3.60
2019-03-29T18:52:00.692Z,3.60
2019-03-29T18:54:28.977Z,3.60
2019-03-29T18:56:57.295Z,3.43
2019-03-29T18:59:25.617Z,4.07
2019-03-29T19:01:53.969Z,3.77
2019-03-29T19:04:22.168Z,4.53
2019-03-29T19:06:50.576Z,4.23
2019-03-29T19:09:18.898Z,3.53
2019-03-29T19:11:47.204Z,3.60
2019-03-29T19:14:15.544Z,4.33
2019-03-29T19:16:58.062Z,3.20
2019-03-29T19:19:13.718Z,3.93
2019-03-29T19:21:42.075Z,3.87
2019-03-29T19:24:10.431Z,3.77
2019-03-29T19:26:38.741Z,4.10
2019-03-29T19:29:07.837Z,3.40
2019-03-29T19:31:36.338Z,4.70
2019-03-29T19:34:04.656Z,5.03
2019-03-29T19:36:32.962Z,3.70
2019-03-29T19:39:01.327Z,3.90
2019-03-29T19:41:29.655Z,4.17
2019-03-29T19:43:57.928Z,4.40
2019-03-29T19:46:26.319Z,3.90
2019-03-29T19:48:54.642Z,3.97
2019-03-29T19:51:22.958Z,3.77
2019-03-29T19:53:51.218Z,3.77
2019-03-29T19:56:19.529Z,4.00
2019-03-29T19:58:47.864Z,3.20
2019-03-29T20:01:17.044Z,3.83
2019-03-29T20:03:45.388Z,4.30
2019-03-29T20:06:13.558Z,3.60
2019-03-29T20:08:41.726Z,3.60
2019-03-29T20:11:09.920Z,3.63
2019-03-29T20:13:38.218Z,3.90
2019-03-29T20:16:06.475Z,3.83
2019-03-29T20:18:34.677Z,3.83
2019-03-29T20:21:03.000Z,3.90
2019-03-29T20:23:31.276Z,3.83
2019-03-29T20:25:59.669Z,4.17
2019-03-29T20:28:28.028Z,3.87
2019-03-29T20:30:56.294Z,3.63
2019-03-29T20:33:24.469Z,3.03
2019-03-29T20:35:52.688Z,3.33
2019-03-29T20:38:21.020Z,3.40
2019-03-29T20:40:49.211Z,3.37
2019-03-29T20:43:17.993Z,3.70
2019-03-29T20:45:46.290Z,3.73
2019-03-29T20:48:14.575Z,3.33
2019-03-29T20:50:42.811Z,3.30
2019-03-29T20:53:11.142Z,3.63
2019-03-29T20:55:39.498Z,3.33
2019-03-29T20:58:07.920Z,3.50
2019-03-29T21:00:36.235Z,3.37
2019-03-29T21:03:04.472Z,3.60
2019-03-29T21:05:32.781Z,3.80
2019-03-29T21:08:01.120Z,3.53
2019-03-29T21:10:29.485Z,3.73
2019-03-29T21:12:57.858Z,3.67
2019-03-29T21:15:26.137Z,3.70
2019-03-29T21:17:57.130Z,3.40
2019-03-29T21:20:24.392Z,3.00
2019-03-29T21:22:52.828Z,4.20
2019-03-29T21:25:21.260Z,3.43
2019-03-29T21:27:49.488Z,3.13
2019-03-29T21:30:17.872Z,3.80
2019-03-29T21:32:46.184Z,4.00
2019-03-29T21:35:14.946Z,3.60
2019-03-29T21:37:43.325Z,3.50
2019-03-29T21:40:11.744Z,4.23
2019-03-29T21:42:40.470Z,4.00
2019-03-29T21:45:08.956Z,3.83
2019-03-29T21:47:38.141Z,3.37
2019-03-29T21:50:07.420Z,3.73
2019-03-29T21:52:35.733Z,3.83
2019-03-29T21:55:04.268Z,3.30
2019-03-29T21:57:32.625Z,3.67
2019-03-29T22:00:00.902Z,3.07
2019-03-29T22:02:29.160Z,3.37
2019-03-29T22:04:57.343Z,3.73
2019-03-29T22:07:25.583Z,3.67
2019-03-29T22:09:53.845Z,3.17
2019-03-29T22:12:22.146Z,3.47
2019-03-29T22:14:50.528Z,4.00
2019-03-29T22:17:18.845Z,3.60
2019-03-29T22:19:47.212Z,3.23
2019-03-29T22:22:15.569Z,3.70
2019-03-29T22:24:43.860Z,3.30
2019-03-29T22:27:12.127Z,3.53
2019-03-29T22:29:40.459Z,4.00
2019-03-29T22:32:08.789Z,3.27
2019-03-29T22:34:37.077Z,3.90
2019-03-29T22:37:05.387Z,4.17
2019-03-29T22:39:33.687Z,3.53
2019-03-29T22:42:02.072Z,3.90
2019-03-29T22:44:30.368Z,3.87
2019-03-29T22:46:58.735Z,3.57
2019-03-29T22:49:27.011Z,3.97
2019-03-29T22:51:55.436Z,3.53
2019-03-29T22:54:23.718Z,4.03
2019-03-29T22:56:52.053Z,4.00
2019-03-29T22:59:20.436Z,4.57
2019-03-29T23:01:48.810Z,3.87
2019-03-29T23:04:17.151Z,4.10
2019-03-29T23:06:45.474Z,3.90
2019-03-29T23:09:13.819Z,3.60
2019-03-29T23:11:42.158Z,4.00
2019-03-29T23:14:10.500Z,3.73
2019-03-29T23:16:38.811Z,4.00
2019-03-29T23:19:07.305Z,4.53
2019-03-29T23:21:35.620Z,4.27
2019-03-29T23:24:04.356Z,4.70
2019-03-29T23:26:32.575Z,4.10
2019-03-29T23:29:00.928Z,4.60
2019-03-29T23:31:29.266Z,4.67
2019-03-29T23:33:57.564Z,4.20
2019-03-29T23:36:25.778Z,4.67
2019-03-29T23:38:54.159Z,4.53
2019-03-29T23:41:22.475Z,4.30
2019-03-29T23:43:50.842Z,4.40
2019-03-29T23:46:20.317Z,4.80
2019-03-29T23:48:48.584Z,4.40
2019-03-29T23:51:16.807Z,4.87
2019-03-29T23:53:45.111Z,4.73
2019-03-29T23:56:13.419Z,4.33
2019-03-29T23:58:41.760Z,4.30
